Time;durP1;ratioP1;P1;durP2;ratioP2;P2;SDS_P1;SDS_P2;PMS_P1;PMS_P2;Temp;Humidity;BMP_temperature;BMP_pressure;BME280_temperature;BME280_humidity;BME280_pressure;Samples;Min_cycle;Max_cycle;Signal;HPM_P1;HPM_P2
2022/01/06 00:00:59;;;;;;;3.50;3.20;;;;;;;3.89;100.00;91643.53;4959377;28;20196;-73
2022/01/06 00:03:27;;;;;;;3.07;2.43;;;;;;;3.71;100.00;91640.00;4959433;28;20200;-72
2022/01/06 00:05:56;;;;;;;4.17;2.77;;;;;;;3.73;100.00;91645.72;4959317;28;20580;-73
2022/01/06 00:08:24;;;;;;;2.67;1.43;;;;;;;3.73;100.00;91647.41;4958988;28;20651;-73
2022/01/06 00:10:52;;;;;;;2.27;2.17;;;;;;;3.78;100.00;91664.75;4958462;28;20211;-72
2022/01/06 00:13:21;;;;;;;2.70;2.10;;;;;;;3.88;100.00;91671.09;4958970;28;20575;-73
2022/01/06 00:16:03;;;;;;;3.63;1.60;;;;;;;3.85;100.00;91669.50;4959383;28;20588;-73
2022/01/06 00:24:03;;;;;;;2.07;1.97;;;;;;;3.78;100.00;91668.06;4958626;28;20511;-72
2022/01/06 00:26:31;;;;;;;2.10;2.00;;;;;;;3.75;100.00;91669.00;4958158;28;20592;-72
2022/01/06 00:28:58;;;;;;;2.83;1.77;;;;;;;3.75;100.00;91653.19;4959482;28;20507;-72
2022/01/06 00:31:25;;;;;;;1.10;1.10;;;;;;;3.78;100.00;91650.56;4958193;28;20576;-72
2022/01/06 00:33:52;;;;;;;4.13;1.77;;;;;;;3.72;100.00;91654.09;4958714;28;20557;-73
2022/01/06 00:36:21;;;;;;;2.13;2.03;;;;;;;3.79;100.00;91652.22;4958291;28;20480;-73
2022/01/06 00:38:48;;;;;;;2.43;2.33;;;;;;;3.75;100.00;91636.53;4958588;28;20479;-73
2022/01/06 00:41:16;;;;;;;1.73;1.73;;;;;;;3.90;100.00;91642.69;4958692;28;20576;-72
2022/01/06 00:43:43;;;;;;;2.43;2.33;;;;;;;3.92;100.00;91645.13;4958279;28;20203;-73
2022/01/06 00:46:10;;;;;;;3.53;3.00;;;;;;;3.86;100.00;91640.34;4958142;28;20451;-73
2022/01/06 00:48:38;;;;;;;3.00;2.90;;;;;;;3.83;100.00;91642.94;4958272;28;20604;-72
2022/01/06 00:51:05;;;;;;;2.23;1.70;;;;;;;3.89;100.00;91643.53;4957944;28;20250;-73
2022/01/06 00:53:34;;;;;;;1.77;1.67;;;;;;;3.90;100.00;91651.84;4957808;28;20656;-73
2022/01/06 00:56:01;;;;;;;1.30;1.30;;;;;;;3.88;100.00;91649.44;4958091;28;20490;-73
2022/01/06 00:58:28;;;;;;;1.10;1.10;;;;;;;3.88;100.00;91644.44;4958345;28;20612;-73
2022/01/06 01:00:56;;;;;;;1.20;1.20;;;;;;;3.93;100.00;91642.59;4958148;28;20561;-72
2022/01/06 01:03:24;;;;;;;1.37;1.37;;;;;;;3.73;100.00;91645.72;4957892;28;20215;-72
2022/01/06 01:05:54;;;;;;;1.30;1.30;;;;;;;3.63;100.00;91638.59;4958026;28;20200;-73
2022/01/06 01:08:23;;;;;;;3.53;1.87;;;;;;;3.61;100.00;91633.66;4957530;28;20604;-73
2022/01/06 01:10:53;;;;;;;1.77;1.67;;;;;;;3.59;100.00;91622.09;4957567;28;20662;-73
2022/01/06 01:13:27;;;;;;;1.00;1.00;;;;;;;3.61;100.00;91617.84;4958471;28;20211;-73
2022/01/06 01:15:57;;;;;;;1.47;1.37;;;;;;;3.53;100.00;91603.13;4957891;28;20483;-73
2022/01/06 01:18:25;;;;;;;1.47;1.47;;;;;;;3.63;100.00;91618.63;4957534;28;20227;-73
2022/01/06 01:20:54;;;;;;;1.60;1.50;;;;;;;3.67;100.00;91622.63;4957326;28;20188;-73
2022/01/06 01:23:22;;;;;;;1.47;1.47;;;;;;;3.71;100.00;91620.00;4957907;28;20570;-73
2022/01/06 01:25:51;;;;;;;1.10;1.10;;;;;;;3.79;100.00;91618.91;4959245;28;20478;-73
2022/01/06 01:28:19;;;;;;;0.70;0.70;;;;;;;3.85;100.00;91617.03;4957786;28;20479;-74
2022/01/06 01:31:02;;;;;;;0.93;0.93;;;;;;;3.79;100.00;91616.44;4957938;28;20504;-73
2022/01/06 01:33:31;;;;;;;1.43;1.33;;;;;;;3.69;100.00;91631.72;4957197;28;20602;-73
2022/01/06 01:35:58;;;;;;;3.00;1.47;;;;;;;3.60;100.00;91623.72;4959484;28;20612;-73
2022/01/06 01:38:25;;;;;;;1.40;1.30;;;;;;;3.61;100.00;91622.84;4956923;28;20618;-73
2022/01/06 01:40:54;;;;;;;1.10;1.10;;;;;;;3.60;100.00;91624.56;4957776;28;20541;-73
2022/01/06 01:43:24;;;;;;;1.27;1.27;;;;;;;3.46;100.00;91615.84;4957361;28;20219;-73
2022/01/06 01:45:56;;;;;;;1.77;1.67;;;;;;;3.42;100.00;91621.81;4957217;28;20518;-74
2022/01/06 01:48:30;;;;;;;10.10;2.17;;;;;;;3.32;100.00;91618.81;4956847;28;20495;-73
2022/01/06 01:50:57;;;;;;;1.93;1.83;;;;;;;3.28;100.00;91609.78;4957766;28;20607;-73
2022/01/06 01:53:25;;;;;;;1.00;1.00;;;;;;;3.29;100.00;91608.91;4957921;28;20459;-72
2022/01/06 01:55:52;;;;;;;1.80;1.80;;;;;;;3.30;100.00;91601.38;4957615;28;20561;-73
2022/01/06 01:58:21;;;;;;;2.40;2.30;;;;;;;3.23;100.00;91589.97;4957189;28;20231;-73
2022/01/06 02:00:49;;;;;;;2.27;2.17;;;;;;;3.32;100.00;91599.63;4957270;28;20598;-73
2022/01/06 02:03:16;;;;;;;1.73;1.73;;;;;;;3.33;100.00;91598.78;4957052;28;20573;-73
2022/01/06 02:05:44;;;;;;;1.93;1.87;;;;;;;3.30;100.00;91598.88;4956684;28;20226;-73
2022/01/06 02:08:11;;;;;;;2.30;2.10;;;;;;;3.29;100.00;91592.25;4956921;28;20557;-73
2022/01/06 02:10:38;;;;;;;1.63;1.53;;;;;;;3.28;100.00;91593.13;4957010;28;20639;-73
2022/01/06 02:13:06;;;;;;;1.27;1.27;;;;;;;3.27;100.00;91593.97;4956906;28;20574;-73
2022/01/06 02:15:35;;;;;;;1.73;1.67;;;;;;;3.29;100.00;91591.44;4956763;28;20596;-73
2022/01/06 02:18:02;;;;;;;1.40;1.40;;;;;;;3.24;100.00;91593.28;4956682;28;20489;-73
2022/01/06 02:20:31;;;;;;;2.23;2.13;;;;;;;3.25;100.00;91589.91;4955909;28;20557;-73
2022/01/06 02:22:58;;;;;;;2.40;1.97;;;;;;;3.36;100.00;91600.38;4956300;28;20516;-73
2022/01/06 02:25:29;;;;;;;3.03;1.90;;;;;;;3.41;100.00;91600.22;4956928;28;20551;-73
2022/01/06 02:28:00;;;;;;;2.13;2.03;;;;;;;3.31;100.00;91602.19;4956672;28;20576;-72
2022/01/06 02:30:28;;;;;;;2.37;1.70;;;;;;;3.31;100.00;91603.03;4956800;28;20573;-72
2022/01/06 02:32:55;;;;;;;1.57;1.57;;;;;;;3.16;100.00;91585.19;4956552;28;20506;-73
2022/01/06 02:35:25;;;;;;;2.03;1.93;;;;;;;3.19;100.00;91595.09;4956224;28;20534;-73
2022/01/06 02:37:53;;;;;;;4.63;1.60;;;;;;;3.34;100.00;91605.41;4957112;28;20474;-73
2022/01/06 02:40:22;;;;;;;0.87;0.87;;;;;;;3.27;100.00;91608.94;4956647;28;20200;-73
2022/01/06 02:42:52;;;;;;;1.63;1.53;;;;;;;3.23;100.00;91599.94;4956902;28;20588;-73
2022/01/06 02:45:20;;;;;;;1.20;1.20;;;;;;;3.17;100.00;91605.13;4956844;28;20232;-73
2022/01/06 02:47:49;;;;;;;2.03;1.97;;;;;;;3.15;100.00;91601.88;4956205;28;20286;-73
2022/01/06 02:50:17;;;;;;;2.83;2.67;;;;;;;3.12;100.00;91598.66;4957098;28;20555;-73
2022/01/06 02:52:45;;;;;;;2.47;2.33;;;;;;;3.06;100.00;91597.16;4956806;28;20553;-73
2022/01/06 02:55:15;;;;;;;3.93;2.70;;;;;;;3.05;100.00;91600.50;4956198;28;20589;-73
2022/01/06 02:57:43;;;;;;;2.00;2.00;;;;;;;3.07;100.00;91605.47;4957280;28;20196;-73
2022/01/06 03:00:13;;;;;;;1.60;1.50;;;;;;;3.03;100.00;91604.75;4956403;28;20517;-73
2022/01/06 03:02:42;;;;;;;1.63;1.53;;;;;;;3.11;100.00;91604.50;4956878;28;20464;-73
2022/01/06 03:05:10;;;;;;;2.13;2.03;;;;;;;3.11;100.00;91602.81;4956420;28;20199;-73
2022/01/06 03:07:38;;;;;;;1.93;1.83;;;;;;;3.03;100.00;91606.44;4956209;28;20596;-73
2022/01/06 03:10:08;;;;;;;2.40;2.30;;;;;;;3.01;100.00;91603.97;4956587;28;20635;-73
2022/01/06 03:12:40;;;;;;;5.30;2.37;;;;;;;2.92;100.00;91596.78;4956433;28;20481;-73
2022/01/06 03:15:09;;;;;;;2.00;1.87;;;;;;;2.73;100.00;91565.78;4956553;28;20572;-73
2022/01/06 03:17:36;;;;;;;1.20;1.20;;;;;;;2.88;100.00;91593.56;4956007;28;20522;-73
2022/01/06 03:20:04;;;;;;;1.20;1.20;;;;;;;2.88;100.00;91592.72;4956108;28;20577;-73
2022/01/06 03:22:31;;;;;;;1.70;1.70;;;;;;;2.88;100.00;91603.53;4956591;28;20553;-72
2022/01/06 03:24:59;;;;;;;1.60;1.60;;;;;;;2.88;100.00;91602.72;4955957;28;20572;-73
2022/01/06 03:27:27;;;;;;;2.63;2.20;;;;;;;2.91;100.00;91615.91;4956124;28;20443;-73
2022/01/06 03:29:55;;;;;;;1.70;1.60;;;;;;;2.91;100.00;91602.63;4955988;28;20521;-73
2022/01/06 03:32:23;;;;;;;2.87;2.77;;;;;;;2.90;100.00;91608.47;4959256;28;20518;-73
2022/01/06 03:34:50;;;;;;;1.47;1.37;;;;;;;2.89;100.00;91612.66;4959437;28;20231;-73
2022/01/06 03:37:17;;;;;;;1.13;1.13;;;;;;;2.99;100.00;91615.66;4959735;28;20588;-73
2022/01/06 03:39:45;;;;;;;1.57;1.57;;;;;;;2.98;100.00;91611.56;4959316;28;20200;-73
2022/01/06 03:42:14;;;;;;;2.03;1.97;;;;;;;2.95;100.00;91619.13;4959281;28;20192;-73
2022/01/06 03:44:41;;;;;;;1.40;1.40;;;;;;;2.88;100.00;91617.66;4959365;28;20525;-73
2022/01/06 03:47:09;;;;;;;2.57;2.33;;;;;;;2.90;100.00;91620.94;4959283;28;20565;-73
2022/01/06 03:49:37;;;;;;;2.23;2.13;;;;;;;2.85;100.00;91620.28;4959026;28;20230;-73
2022/01/06 03:52:05;;;;;;;5.30;3.13;;;;;;;2.84;100.00;91608.66;4958880;28;20561;-73
2022/01/06 03:54:32;;;;;;;2.33;2.23;;;;;;;2.97;100.00;91627.38;4959215;28;20212;-73
2022/01/06 03:57:00;;;;;;;2.37;1.27;;;;;;;3.12;100.00;91624.41;4960280;28;20493;-73
2022/01/06 03:59:27;;;;;;;1.63;1.63;;;;;;;3.28;100.00;91628.06;4959529;28;20521;-72
2022/01/06 04:01:54;;;;;;;1.40;1.37;;;;;;;3.30;100.00;91630.50;4959382;28;20597;-73
2022/01/06 04:04:23;;;;;;;2.57;2.47;;;;;;;3.32;100.00;91631.28;4959840;28;20200;-73
2022/01/06 04:06:50;;;;;;;3.63;3.43;;;;;;;3.30;100.00;91628.84;4959139;28;20463;-73
2022/01/06 04:09:18;;;;;;;3.33;3.13;;;;;;;3.23;100.00;91629.88;4958734;28;20560;-73
2022/01/06 04:11:45;;;;;;;3.40;2.23;;;;;;;3.20;100.00;91625.00;4959403;28;20581;-73
2022/01/06 04:14:12;;;;;;;3.07;2.87;;;;;;;3.15;100.00;91616.84;4959414;28;20496;-73
2022/01/06 04:16:40;;;;;;;3.13;2.87;;;;;;;3.28;100.00;91633.03;4958810;28;20575;-73
2022/01/06 04:19:09;;;;;;;3.37;3.07;;;;;;;3.26;100.00;91639.78;4959152;28;20604;-73
2022/01/06 04:21:38;;;;;;;3.27;3.07;;;;;;;3.20;100.00;91637.47;4959316;28;20647;-73
2022/01/06 04:24:05;;;;;;;3.43;2.80;;;;;;;3.17;100.00;91641.72;4958114;28;20504;-73
2022/01/06 04:26:33;;;;;;;3.53;3.33;;;;;;;3.25;100.00;91644.81;4958804;28;20587;-73
2022/01/06 04:29:00;;;;;;;2.10;2.00;;;;;;;3.16;100.00;91645.09;4958482;28;20208;-73
2022/01/06 04:31:27;;;;;;;1.23;1.00;;;;;;;3.14;100.00;91637.66;4959032;28;20631;-73
2022/01/06 04:33:54;;;;;;;1.97;1.87;;;;;;;3.11;100.00;91637.75;4958346;28;20475;-72
2022/01/06 04:36:22;;;;;;;1.70;1.70;;;;;;;3.07;100.00;91641.22;4959494;28;20188;-73
2022/01/06 04:38:50;;;;;;;2.37;1.97;;;;;;;3.11;100.00;91639.41;4958284;28;20573;-72
2022/01/06 04:41:17;;;;;;;1.33;1.33;;;;;;;3.15;100.00;91634.31;4958126;28;20481;-72
2022/01/06 04:43:45;;;;;;;2.47;2.37;;;;;;;3.31;100.00;91652.94;4957758;28;20215;-73
2022/01/06 04:46:12;;;;;;;1.37;1.37;;;;;;;3.16;100.00;91640.09;4958488;28;20468;-73
2022/01/06 04:48:39;;;;;;;1.27;1.27;;;;;;;3.15;100.00;91656.78;4957751;28;20659;-73
2022/01/06 04:51:07;;;;;;;1.57;1.57;;;;;;;3.04;100.00;91653.78;4958283;28;20592;-73
2022/01/06 04:53:35;;;;;;;1.23;1.23;;;;;;;2.90;100.00;91640.91;4957874;28;20215;-73
2022/01/06 04:56:04;;;;;;;1.80;1.80;;;;;;;2.96;100.00;91664.84;4957914;28;20452;-73
2022/01/06 04:58:32;;;;;;;1.67;1.67;;;;;;;2.90;100.00;91666.66;4957781;28;20467;-74
2022/01/06 05:01:00;;;;;;;2.73;2.63;;;;;;;2.93;100.00;91666.56;4958147;28;20678;-74
2022/01/06 05:03:27;;;;;;;2.17;2.13;;;;;;;2.87;100.00;91673.44;4958159;28;20567;-73
2022/01/06 05:05:54;;;;;;;2.27;2.17;;;;;;;2.84;100.00;91664.34;4957796;28;20584;-73
2022/01/06 05:08:21;;;;;;;2.27;2.17;;;;;;;2.89;100.00;91670.00;4957943;28;20200;-73
2022/01/06 05:10:49;;;;;;;1.77;1.67;;;;;;;2.98;100.00;91676.41;4958133;28;20236;-73
2022/01/06 05:13:17;;;;;;;3.53;2.40;;;;;;;3.05;100.00;91667.03;4957718;28;20469;-74
2022/01/06 05:15:45;;;;;;;2.37;2.27;;;;;;;3.06;100.00;91664.50;4957812;28;20509;-74
2022/01/06 05:18:12;;;;;;;2.67;2.57;;;;;;;3.04;100.00;91668.75;4958573;28;20335;-74
2022/01/06 05:20:42;;;;;;;2.77;2.57;;;;;;;3.14;100.00;91674.28;4957945;28;20196;-73
2022/01/06 05:23:10;;;;;;;2.57;2.37;;;;;;;3.05;100.00;91662.88;4958368;28;20575;-73
2022/01/06 05:25:37;;;;;;;2.47;2.37;;;;;;;3.09;100.00;91666.94;4957523;28;20509;-74
2022/01/06 05:28:05;;;;;;;2.10;2.03;;;;;;;2.98;100.00;91656.47;4957624;28;20635;-73
2022/01/06 05:30:34;;;;;;;4.87;4.37;;;;;;;3.00;100.00;91667.19;4956986;28;20446;-73
2022/01/06 05:33:01;;;;;;;5.50;5.10;;;;;;;2.89;100.00;91659.22;4954976;28;20231;-74
2022/01/06 05:35:28;;;;;;;4.97;4.77;;;;;;;3.04;100.00;91681.22;4956617;28;20207;-73
2022/01/06 05:37:56;;;;;;;7.30;6.63;;;;;;;3.16;100.00;91675.84;4957578;28;20600;-73
2022/01/06 05:40:23;;;;;;;13.97;9.93;;;;;;;3.18;100.00;91675.81;4957166;28;20581;-73
2022/01/06 05:42:50;;;;;;;6.70;6.10;;;;;;;3.08;100.00;91679.44;4957047;28;20588;-73
2022/01/06 05:45:18;;;;;;;8.00;7.30;;;;;;;2.91;100.00;91669.97;4957253;28;20553;-73
2022/01/06 05:47:50;;;;;;;7.60;6.83;;;;;;;2.91;100.00;91683.25;4956739;28;20333;-72
2022/01/06 05:50:17;;;;;;;12.87;9.70;;;;;;;2.96;100.00;91684.78;4956186;28;20471;-73
2022/01/06 05:52:45;;;;;;;9.17;8.47;;;;;;;3.06;100.00;91686.97;4957837;28;20565;-73
2022/01/06 05:55:13;;;;;;;7.20;6.70;;;;;;;3.00;100.00;91688.81;4954623;28;20580;-73
2022/01/06 05:57:40;;;;;;;4.10;3.90;;;;;;;2.91;100.00;91674.97;4961330;28;20446;-74
2022/01/06 06:00:09;;;;;;;3.97;3.67;;;;;;;3.16;100.00;91700.78;4956334;28;20587;-73
2022/01/06 06:02:37;;;;;;;5.30;3.97;;;;;;;3.29;100.00;91696.25;4959157;28;20592;-74
2022/01/06 06:05:06;;;;;;;16.57;10.50;;;;;;;3.33;100.00;91692.81;4957453;28;20644;-73
2022/01/06 06:07:33;;;;;;;5.03;4.63;;;;;;;3.30;100.00;91688.72;4955499;28;20506;-73
2022/01/06 06:10:01;;;;;;;40.67;19.77;;;;;;;3.23;100.00;91689.78;4957045;28;20235;-74
2022/01/06 06:12:28;;;;;;;8.63;7.77;;;;;;;3.27;100.00;91691.31;4961569;28;20513;-74
2022/01/06 06:14:55;;;;;;;5.83;5.47;;;;;;;3.19;100.00;91683.25;4958934;28;20484;-74
2022/01/06 06:17:22;;;;;;;6.00;5.50;;;;;;;3.05;100.00;91687.00;4956935;28;20497;-73
2022/01/06 06:19:50;;;;;;;11.03;6.37;;;;;;;3.19;100.00;91697.41;4962724;28;20603;-74
2022/01/06 06:22:18;;;;;;;5.43;4.93;;;;;;;3.06;100.00;91693.63;4958662;28;20497;-73
2022/01/06 06:24:46;;;;;;;5.40;5.07;;;;;;;3.16;100.00;91703.28;4957084;28;20585;-74
2022/01/06 06:27:13;;;;;;;15.50;8.27;;;;;;;3.11;100.00;91697.63;4957096;28;20498;-73
2022/01/06 06:29:40;;;;;;;4.47;4.23;;;;;;;3.04;100.00;91692.88;4956022;28;20477;-74
2022/01/06 06:32:08;;;;;;;8.40;7.57;;;;;;;3.09;100.00;91694.38;4952780;28;20502;-73
2022/01/06 06:34:36;;;;;;;4.67;4.40;;;;;;;3.09;100.00;91701.88;4957995;28;20503;-73
2022/01/06 06:37:04;;;;;;;5.00;4.60;;;;;;;3.08;100.00;91691.91;4955515;28;20207;-73
2022/01/06 06:39:32;;;;;;;11.60;7.37;;;;;;;3.04;100.00;91698.69;4955876;28;20565;-73
2022/01/06 06:42:03;;;;;;;9.47;6.80;;;;;;;3.07;100.00;91703.56;4957580;28;20568;-72
2022/01/06 06:44:30;;;;;;;17.40;10.27;;;;;;;3.01;100.00;91695.44;4955792;28;20516;-73
2022/01/06 06:47:01;;;;;;;5.90;5.50;;;;;;;3.09;100.00;91701.88;4959756;28;20615;-72
2022/01/06 06:49:28;;;;;;;31.88;13.23;;;;;;;3.15;100.00;91696.69;4955001;28;20938;-73
2022/01/06 06:51:56;;;;;;;13.13;9.37;;;;;;;3.06;100.00;91672.00;4956025;28;20219;-72
2022/01/06 06:54:23;;;;;;;9.57;7.80;;;;;;;3.33;100.00;91701.09;4958941;28;20509;-72
2022/01/06 06:56:52;;;;;;;11.67;6.23;;;;;;;3.43;100.00;91704.16;4959352;28;20623;-73
2022/01/06 06:59:19;;;;;;;8.77;6.73;;;;;;;3.52;100.00;91710.53;4958979;28;20204;-73
2022/01/06 07:01:46;;;;;;;5.53;4.97;;;;;;;3.62;100.00;91716.88;4956243;28;20538;-73
2022/01/06 07:04:13;;;;;;;8.67;4.70;;;;;;;3.66;100.00;91721.72;4955895;28;20227;-72
2022/01/06 07:06:41;;;;;;;8.23;5.40;;;;;;;3.75;100.00;91726.44;4958097;28;20208;-73
2022/01/06 07:09:08;;;;;;;4.63;4.33;;;;;;;3.75;100.00;91728.94;4958500;28;20222;-74
2022/01/06 07:11:35;;;;;;;6.33;4.40;;;;;;;3.70;100.00;91720.78;4962849;28;20665;-74
2022/01/06 07:14:04;;;;;;;5.93;5.47;;;;;;;3.79;100.00;91729.63;4959460;28;20611;-74
2022/01/06 07:16:31;;;;;;;8.23;7.60;;;;;;;3.83;100.00;91727.88;4961991;28;20565;-73
2022/01/06 07:19:02;;;;;;;9.97;8.97;;;;;;;3.96;100.00;91746.59;4960885;28;20581;-73
2022/01/06 07:21:30;;;;;;;30.83;12.83;;;;;;;4.12;100.00;91743.53;4962742;28;20537;-73
2022/01/06 07:23:57;;;;;;;16.87;12.27;;;;;;;4.32;100.00;91749.59;4961741;28;20600;-74
2022/01/06 07:26:24;;;;;;;10.93;7.10;;;;;;;4.07;100.00;91699.59;4960073;28;20565;-74
2022/01/06 07:28:52;;;;;;;14.63;11.07;;;;;;;4.61;100.00;91749.41;4961200;28;20590;-74
2022/01/06 07:31:21;;;;;;;12.80;9.80;;;;;;;4.66;100.00;91752.56;4962204;28;20615;-74
2022/01/06 07:33:48;;;;;;;19.77;11.07;;;;;;;4.74;100.00;91740.59;4960692;28;20469;-73
2022/01/06 07:36:15;;;;;;;5.60;5.10;;;;;;;5.00;100.00;91750.53;4953348;28;20208;-75
2022/01/06 07:38:42;;;;;;;10.80;4.80;;;;;;;5.13;100.00;91750.06;4957197;28;20561;-76
2022/01/06 07:41:10;;;;;;;3.20;3.10;;;;;;;5.27;100.00;91735.34;4964036;28;20467;-76
2022/01/06 07:43:37;;;;;;;5.37;5.03;;;;;;;5.40;100.00;91734.84;4964404;28;20196;-74
2022/01/06 07:46:05;;;;;;;5.37;4.97;;;;;;;5.59;100.00;91734.13;4960559;28;20587;-74
2022/01/06 07:48:48;;;;;;;3.70;2.40;;;;;;;5.76;100.00;91717.56;4962911;28;20596;-73
2022/01/06 07:51:16;;;;;;;2.13;1.97;;;;;;;6.02;99.68;91735.84;4960391;28;20271;-74
2022/01/06 07:53:43;;;;;;;4.30;3.23;;;;;;;6.19;99.11;91738.47;4961016;28;20480;-72
2022/01/06 07:56:11;;;;;;;2.43;2.33;;;;;;;6.32;98.51;91736.25;4959648;28;20588;-73
2022/01/06 07:58:38;;;;;;;3.97;3.60;;;;;;;6.55;97.32;91747.00;4966872;28;20569;-75
2022/01/06 08:01:05;;;;;;;15.33;6.30;;;;;;;6.73;96.70;91744.59;4959772;28;20491;-74
2022/01/06 08:03:34;;;;;;;14.83;8.23;;;;;;;6.90;96.46;91734.66;4957772;28;20480;-74
2022/01/06 08:06:03;;;;;;;21.67;14.23;;;;;;;7.11;95.99;91743.75;4955252;28;20604;-74
2022/01/06 08:08:30;;;;;;;24.87;13.00;;;;;;;7.29;95.16;91753.00;4961367;28;20488;-74
2022/01/06 08:10:57;;;;;;;20.73;11.87;;;;;;;7.43;94.57;91757.41;4957278;28;20474;-75
2022/01/06 08:13:25;;;;;;;5.67;5.17;;;;;;;7.59;94.19;91755.03;4957317;28;20476;-75
2022/01/06 08:15:52;;;;;;;58.17;20.03;;;;;;;7.74;93.37;91759.34;4956093;28;20250;-75
2022/01/06 08:18:20;;;;;;;42.83;17.63;;;;;;;7.90;92.73;91761.09;4958252;28;20560;-74
2022/01/06 08:20:49;;;;;;;14.13;7.63;;;;;;;8.07;92.68;91767.03;4957524;28;20514;-74
2022/01/06 08:23:16;;;;;;;19.73;9.40;;;;;;;8.14;91.16;91749.06;4959128;28;20204;-75
2022/01/06 08:25:44;;;;;;;24.00;11.83;;;;;;;8.31;90.00;91763.38;4957691;28;20565;-74
2022/01/06 08:28:11;;;;;;;27.17;11.67;;;;;;;8.52;89.40;91764.03;4956751;28;20216;-75
2022/01/06 08:30:38;;;;;;;46.30;19.00;;;;;;;8.70;88.13;91770.69;4960046;28;20255;-74
2022/01/06 08:33:05;;;;;;;22.30;11.13;;;;;;;8.83;87.54;91761.66;4957732;28;20526;-75
2022/01/06 08:35:33;;;;;;;44.17;19.43;;;;;;;9.07;87.35;91764.66;4959837;28;20560;-75
2022/01/06 08:38:02;;;;;;;17.57;9.10;;;;;;;9.24;85.82;91783.97;4958213;28;20626;-76
2022/01/06 08:40:30;;;;;;;12.40;7.57;;;;;;;9.31;83.16;91770.13;4959296;28;20491;-75
2022/01/06 08:42:57;;;;;;;10.33;8.17;;;;;;;9.50;82.45;91779.19;4958609;28;20514;-75
2022/01/06 08:45:24;;;;;;;8.90;5.67;;;;;;;9.61;76.72;91803.84;4958773;28;20646;-75
2022/01/06 08:47:52;;;;;;;14.07;7.67;;;;;;;9.66;77.37;91765.78;4961050;28;21172;-75
2022/01/06 08:50:19;;;;;;;11.07;7.53;;;;;;;9.95;76.64;91780.19;4956316;28;20604;-75
2022/01/06 08:52:47;;;;;;;61.93;27.77;;;;;;;10.05;77.56;91763.63;4958297;28;20243;-74
2022/01/06 08:55:15;;;;;;;19.93;12.00;;;;;;;10.24;77.79;91763.47;4957631;28;20581;-74
2022/01/06 08:57:43;;;;;;;14.20;9.20;;;;;;;10.24;77.08;91748.34;4962616;28;20567;-74
2022/01/06 09:00:12;;;;;;;14.70;9.90;;;;;;;10.48;76.25;91774.72;4959055;28;20735;-74
2022/01/06 09:02:39;;;;;;;9.33;7.63;;;;;;;10.58;76.25;91768.28;4957447;28;20484;-74
2022/01/06 09:05:08;;;;;;;7.47;6.80;;;;;;;10.55;74.73;91765.91;4965672;28;20514;-74
2022/01/06 09:07:36;;;;;;;11.17;7.10;;;;;;;10.70;75.10;91771.84;4954900;28;20489;-73
2022/01/06 09:10:04;;;;;;;16.90;10.30;;;;;;;10.70;75.08;91762.50;4960175;28;20582;-74
2022/01/06 09:12:33;;;;;;;20.33;11.27;;;;;;;10.85;76.28;91760.03;4958111;28;20513;-74
2022/01/06 09:15:00;;;;;;;20.93;13.07;;;;;;;10.88;77.98;91737.09;4960328;28;20752;-74
2022/01/06 09:17:28;;;;;;;18.40;9.90;;;;;;;10.95;75.02;91768.69;4955496;28;20585;-75
2022/01/06 09:19:55;;;;;;;15.13;10.90;;;;;;;11.02;74.80;91757.34;4959369;28;20681;-75
2022/01/06 09:22:22;;;;;;;19.23;11.87;;;;;;;11.13;75.00;91760.88;4954478;28;20321;-74
2022/01/06 09:24:49;;;;;;;8.97;7.00;;;;;;;11.20;71.42;91789.97;4953301;28;20267;-75
2022/01/06 09:27:23;;;;;;;22.20;11.67;;;;;;;11.32;73.78;91758.09;4953014;28;20567;-74
2022/01/06 09:29:53;;;;;;;12.93;8.60;;;;;;;11.39;71.89;91766.91;4956629;28;20486;-75
2022/01/06 09:32:25;;;;;;;8.93;4.57;;;;;;;11.39;69.16;91781.28;4955507;28;20479;-73
2022/01/06 09:34:52;;;;;;;33.40;13.27;;;;;;;11.61;69.25;91774.84;4954470;28;20482;-74
2022/01/06 09:37:20;;;;;;;12.40;8.03;;;;;;;11.74;70.61;91751.38;4954464;28;20589;-74
2022/01/06 09:39:47;;;;;;;8.50;6.77;;;;;;;11.94;70.36;91756.03;4954303;28;20297;-74
2022/01/06 09:42:14;;;;;;;7.00;6.37;;;;;;;12.02;68.91;91764.75;4954441;28;20666;-76
2022/01/06 09:44:42;;;;;;;18.13;10.33;;;;;;;12.32;69.33;91758.72;4953056;28;20286;-74
2022/01/06 09:47:11;;;;;;;15.53;7.63;;;;;;;12.45;68.94;91750.22;4959201;28;20569;-75
2022/01/06 09:49:40;;;;;;;16.00;9.37;;;;;;;12.63;69.01;91750.75;4955873;28;20499;-72
2022/01/06 09:52:08;;;;;;;24.10;12.38;;;;;;;12.73;68.89;91743.41;4956990;28;20636;-76
2022/01/06 09:54:39;;;;;;;18.83;11.07;;;;;;;12.98;68.98;91745.13;4955064;28;20549;-73
2022/01/06 09:57:08;;;;;;;18.08;11.25;;;;;;;13.14;68.19;91759.25;4954482;28;20490;-74
2022/01/06 09:59:35;;;;;;;25.92;13.05;;;;;;;13.38;68.13;91756.00;4971062;28;20630;-75
2022/01/06 10:02:03;;;;;;;21.88;11.10;;;;;;;13.58;67.38;91763.09;4962502;28;20568;-73
2022/01/06 10:04:41;;;;;;;14.00;8.80;;;;;;;13.33;65.61;91697.16;4959248;28;20624;-73
2022/01/06 10:07:17;;;;;;;14.95;8.85;;;;;;;13.49;65.82;91713.78;4959282;28;20560;-73
2022/01/06 10:09:45;;;;;;;14.50;8.80;;;;;;;13.97;65.05;91755.28;4957653;28;20518;-73
2022/01/06 10:12:16;;;;;;;40.85;12.10;;;;;;;14.55;64.55;91760.56;4958870;28;20228;-73
2022/01/06 10:14:51;;;;;;;11.70;9.00;;;;;;;15.62;59.85;91783.16;4956621;28;20687;-74
2022/01/06 10:17:31;;;;;;;7.80;7.05;;;;;;;16.75;53.04;91775.22;4959734;28;20199;-75
2022/01/06 10:20:13;;;;;;;10.68;7.88;;;;;;;17.85;48.97;91802.03;4958196;28;20283;-75
2022/01/06 10:22:46;;;;;;;14.80;8.80;;;;;;;18.56;47.10;91794.19;4954451;28;20474;-75
2022/01/06 10:25:15;;;;;;;8.98;7.45;;;;;;;19.22;44.96;91814.03;4945151;28;20211;-75
2022/01/06 10:27:46;;;;;;;16.60;11.70;;;;;;;19.63;42.33;91816.31;4949763;28;20588;-76
2022/01/06 10:30:15;;;;;;;24.08;15.63;;;;;;;19.42;42.07;91815.66;4950890;28;20635;-75
2022/01/06 10:32:44;;;;;;;26.45;16.40;;;;;;;19.58;41.74;91802.31;4954794;28;20607;-74
2022/01/06 10:35:20;;;;;;;24.55;12.60;;;;;;;19.39;41.03;91810.78;4953238;28;20612;-74
2022/01/06 10:37:48;;;;;;;5.47;5.15;;;;;;;19.29;40.68;91803.13;4940767;28;20470;-74
2022/01/06 10:40:22;;;;;;;6.25;5.05;;;;;;;19.95;39.87;91797.19;4936086;28;20216;-73
2022/01/06 10:42:51;;;;;;;4.28;3.90;;;;;;;20.40;37.91;91812.69;4955115;28;20669;-73
2022/01/06 10:45:24;;;;;;;3.97;3.70;;;;;;;20.55;36.40;91817.22;4954712;28;20667;-73
2022/01/06 10:47:53;;;;;;;4.57;4.28;;;;;;;20.56;37.07;91816.25;4955627;28;20513;-73
2022/01/06 10:50:24;;;;;;;7.72;4.32;;;;;;;20.33;37.35;91807.34;4959634;28;20476;-73
2022/01/06 10:52:53;;;;;;;9.45;3.72;;;;;;;19.49;37.18;91783.44;4957520;28;20496;-73
2022/01/06 10:55:23;;;;;;;4.95;2.95;;;;;;;19.14;38.65;91791.69;4960137;28;20552;-73
2022/01/06 10:57:55;;;;;;;5.00;4.70;;;;;;;18.88;39.27;91775.22;4959965;28;20211;-73
2022/01/06 11:00:25;;;;;;;16.50;8.60;;;;;;;18.57;39.57;91779.66;4959426;28;20565;-72
2022/01/06 11:02:52;;;;;;;14.88;9.57;;;;;;;18.67;40.82;91767.69;4960179;28;20582;-73
2022/01/06 11:05:20;;;;;;;3.45;3.25;;;;;;;18.56;37.73;91783.97;4957442;28;20638;-73
2022/01/06 11:07:53;;;;;;;6.47;6.00;;;;;;;18.65;37.88;91787.47;4956906;28;20276;-72
2022/01/06 11:10:22;;;;;;;7.50;6.35;;;;;;;18.99;37.94;91785.34;4957304;28;20456;-72
2022/01/06 11:12:50;;;;;;;3.00;2.90;;;;;;;18.98;36.15;91797.31;4957831;28;20220;-73
2022/01/06 11:15:18;;;;;;;12.98;9.30;;;;;;;19.39;36.99;91785.16;4956100;28;20472;-72
2022/01/06 11:17:48;;;;;;;17.15;11.02;;;;;;;19.01;37.97;91781.72;4957485;28;20572;-73
2022/01/06 11:20:23;;;;;;;48.17;24.00;;;;;;;18.73;38.04;91776.56;4958614;28;20549;-74
2022/01/06 11:22:54;;;;;;;21.75;12.75;;;;;;;18.71;38.70;91770.78;4952435;28;20663;-72
2022/01/06 11:25:30;;;;;;;14.48;10.77;;;;;;;18.90;38.25;91778.47;4959181;28;20646;-72
2022/01/06 11:28:03;;;;;;;17.23;12.50;;;;;;;19.21;37.14;91784.28;4953404;28;20212;-73
2022/01/06 11:30:41;;;;;;;8.90;8.15;;;;;;;19.80;35.67;91784.03;4957823;28;20281;-73
2022/01/06 11:33:09;;;;;;;6.32;4.45;;;;;;;20.37;33.66;91805.28;4959295;28;20216;-73
2022/01/06 11:35:50;;;;;;;2.88;1.52;;;;;;;20.64;29.64;91829.19;4960074;28;20276;-73
2022/01/06 11:38:21;;;;;;;1.02;0.82;;;;;;;20.15;28.63;91845.72;4952330;28;20464;-73
2022/01/06 11:40:50;;;;;;;5.57;1.48;;;;;;;20.10;30.45;91814.56;4959424;28;20584;-73
2022/01/06 11:43:18;;;;;;;14.40;6.45;;;;;;;20.56;31.01;91805.22;4959466;28;20431;-74